createdAt,value
2022-10-19T00:02:12.493Z,12.00
2022-10-19T00:04:39.071Z,12.35
2022-10-19T00:07:05.724Z,11.95
2022-10-19T00:09:32.496Z,11.45
2022-10-19T00:11:59.287Z,12.25
2022-10-19T00:14:25.867Z,11.95
2022-10-19T00:16:53.249Z,10.93
2022-10-19T00:19:24.479Z,10.65
2022-10-19T00:21:52.452Z,11.30
2022-10-19T00:24:19.591Z,11.40
2022-10-19T00:26:47.838Z,10.40
2022-10-19T00:29:16.973Z,11.50
2022-10-19T00:31:44.061Z,10.38
2022-10-19T00:34:10.985Z,10.48
2022-10-19T00:36:39.741Z,11.10
2022-10-19T00:39:10.501Z,9.52
2022-10-19T00:41:39.187Z,8.98
2022-10-19T00:44:27.472Z,8.32
2022-10-19T00:46:57.252Z,9.50
2022-10-19T00:49:27.179Z,9.15
2022-10-19T00:51:58.197Z,9.55
2022-10-19T00:54:25.617Z,10.77
2022-10-19T00:56:55.137Z,10.35
2022-10-19T00:59:25.115Z,11.38
2022-10-19T01:01:53.617Z,10.52
2022-10-19T01:04:22.174Z,9.43
2022-10-19T01:06:49.073Z,9.20
2022-10-19T01:09:15.983Z,8.45
2022-10-19T01:12:01.200Z,10.40
2022-10-19T01:14:59.120Z,10.15
2022-10-19T01:17:59.560Z,9.00
2022-10-19T01:20:32.366Z,9.60
2022-10-19T01:23:23.484Z,10.07
2022-10-19T01:25:56.873Z,10.55
2022-10-19T01:28:51.830Z,9.73
2022-10-19T01:31:35.717Z,11.85
2022-10-19T01:34:11.325Z,11.43
2022-10-19T01:36:52.944Z,9.15
2022-10-19T01:39:31.234Z,9.30
2022-10-19T01:42:03.586Z,10.75
2022-10-19T01:47:12.261Z,8.80
2022-10-19T01:52:12.665Z,8.23
2022-10-19T01:54:46.926Z,8.48
2022-10-19T01:57:21.553Z,8.63
2022-10-19T01:59:49.498Z,8.32
2022-10-19T02:02:18.099Z,8.30
2022-10-19T02:04:47.108Z,7.40
2022-10-19T02:07:14.216Z,7.60
2022-10-19T02:09:40.799Z,8.95
2022-10-19T02:12:11.353Z,6.57
2022-10-19T02:14:44.357Z,7.85
2022-10-19T02:17:17.056Z,7.97
2022-10-19T02:19:43.791Z,8.52
2022-10-19T02:22:12.235Z,8.45
2022-10-19T02:24:38.929Z,8.60
2022-10-19T02:27:07.858Z,8.07
2022-10-19T02:29:36.827Z,9.55
2022-10-19T02:32:04.473Z,9.23
2022-10-19T02:34:31.701Z,8.07
2022-10-19T02:36:58.664Z,8.52
2022-10-19T02:39:25.752Z,8.30
2022-10-19T02:42:11.503Z,8.48
2022-10-19T02:44:53.197Z,9.43
2022-10-19T02:47:30.252Z,8.40
2022-10-19T02:49:56.888Z,8.43
2022-10-19T02:52:23.485Z,8.68
2022-10-19T02:54:50.081Z,9.35
2022-10-19T02:57:21.299Z,8.27
2022-10-19T02:59:47.914Z,7.25
2022-10-19T03:02:16.407Z,10.65
2022-10-19T03:04:44.713Z,8.30
2022-10-19T03:07:16.094Z,11.27
2022-10-19T03:09:43.839Z,10.02
2022-10-19T03:12:12.293Z,9.77
2022-10-19T03:14:39.314Z,8.90
2022-10-19T03:17:06.021Z,9.38
2022-10-19T03:19:34.317Z,9.82
2022-10-19T03:22:01.123Z,10.50
2022-10-19T03:24:27.985Z,10.10
2022-10-19T03:26:54.692Z,10.23
2022-10-19T03:29:21.323Z,10.93
2022-10-19T03:31:48.089Z,10.63
2022-10-19T03:34:14.710Z,10.60
2022-10-19T03:36:42.481Z,11.80
2022-10-19T03:39:12.468Z,10.60
2022-10-19T03:41:39.503Z,11.02
2022-10-19T03:44:07.182Z,10.57
2022-10-19T03:46:35.767Z,11.40
2022-10-19T03:49:03.405Z,11.20
2022-10-19T03:51:31.445Z,10.43
2022-10-19T03:54:01.383Z,11.73
2022-10-19T03:56:29.950Z,10.27
2022-10-19T03:58:58.921Z,11.43
2022-10-19T04:01:31.651Z,11.07
2022-10-19T04:04:01.037Z,10.13
2022-10-19T04:06:30.495Z,9.93
2022-10-19T04:08:58.296Z,10.43
2022-10-19T04:11:27.823Z,10.20
2022-10-19T04:13:56.147Z,11.82
2022-10-19T04:16:24.555Z,10.75
2022-10-19T04:18:51.675Z,10.40
2022-10-19T04:21:33.095Z,10.40
2022-10-19T04:24:14.201Z,11.30
2022-10-19T04:26:55.152Z,13.60
2022-10-19T04:29:26.456Z,13.45
2022-10-19T04:31:56.287Z,10.65
2022-10-19T04:34:23.192Z,15.55
2022-10-19T04:36:50.167Z,12.23
2022-10-19T04:39:16.913Z,11.88
2022-10-19T04:41:43.585Z,12.73
2022-10-19T04:44:10.182Z,14.63
2022-10-19T04:46:37.608Z,13.93
2022-10-19T04:49:06.227Z,14.40
2022-10-19T04:51:32.952Z,11.90
2022-10-19T04:54:00.069Z,14.77
2022-10-19T04:56:27.551Z,15.40
2022-10-19T04:58:56.580Z,14.13
2022-10-19T05:01:24.241Z,13.45
2022-10-19T05:03:58.172Z,18.05
2022-10-19T05:06:26.367Z,15.48
2022-10-19T05:08:53.627Z,14.50
2022-10-19T05:11:20.924Z,14.50
2022-10-19T05:13:48.124Z,11.68
2022-10-19T05:16:18.261Z,10.38
2022-10-19T05:18:53.267Z,12.85
2022-10-19T05:21:21.855Z,8.93
2022-10-19T05:23:52.312Z,9.73
2022-10-19T05:26:21.792Z,9.77
2022-10-19T05:28:49.920Z,8.10
2022-10-19T05:31:20.175Z,8.93
2022-10-19T05:33:47.396Z,9.65
2022-10-19T05:36:15.813Z,9.18
2022-10-19T05:38:44.059Z,8.13
2022-10-19T05:41:11.551Z,6.63
2022-10-19T05:43:39.322Z,6.75
2022-10-19T05:46:08.633Z,6.53
2022-10-19T05:48:35.963Z,5.57
2022-10-19T05:51:05.357Z,4.65
2022-10-19T05:53:33.375Z,4.40
2022-10-19T05:56:00.039Z,4.75
2022-10-19T05:58:27.036Z,5.68
2022-10-19T06:00:58.597Z,6.65
2022-10-19T06:03:26.052Z,5.13
2022-10-19T06:05:54.091Z,5.97
2022-10-19T06:08:22.208Z,5.40
2022-10-19T06:10:49.710Z,6.75
2022-10-19T06:13:18.486Z,6.07
2022-10-19T06:15:45.191Z,6.68
2022-10-19T06:18:13.096Z,6.90
2022-10-19T06:20:42.004Z,8.23
2022-10-19T06:23:09.348Z,7.75
2022-10-19T06:25:36.863Z,7.20
2022-10-19T06:28:04.160Z,8.38
2022-10-19T06:30:30.793Z,8.02
2022-10-19T06:32:59.019Z,6.68
2022-10-19T06:35:25.898Z,8.15
2022-10-19T06:37:52.614Z,7.22
2022-10-19T06:40:19.382Z,7.20
2022-10-19T06:42:46.242Z,8.95
2022-10-19T06:45:12.945Z,9.52
2022-10-19T06:50:14.352Z,8.98
2022-10-19T06:52:41.407Z,8.65
2022-10-19T06:55:08.722Z,9.68
2022-10-19T06:57:35.875Z,9.60
2022-10-19T07:00:04.031Z,9.18
2022-10-19T07:02:30.811Z,10.05
2022-10-19T07:04:57.442Z,9.70
2022-10-19T07:07:24.350Z,9.07
2022-10-19T07:09:51.129Z,9.73
2022-10-19T07:12:17.736Z,10.55
2022-10-19T07:14:44.364Z,9.18
2022-10-19T07:17:12.289Z,10.25
2022-10-19T07:19:39.018Z,10.57
2022-10-19T07:22:06.936Z,10.52
2022-10-19T07:24:33.526Z,10.35
2022-10-19T07:27:00.213Z,9.23
2022-10-19T07:29:26.963Z,10.60
2022-10-19T07:31:53.715Z,10.40
2022-10-19T07:34:23.120Z,9.93
2022-10-19T07:36:52.758Z,10.43
2022-10-19T07:39:19.529Z,10.60
2022-10-19T07:41:46.691Z,9.93
2022-10-19T07:44:15.891Z,9.60
2022-10-19T07:46:43.107Z,8.82
2022-10-19T07:49:20.007Z,8.68
2022-10-19T07:51:47.563Z,7.75
2022-10-19T07:54:14.292Z,7.68
2022-10-19T07:56:41.022Z,9.32
2022-10-19T07:59:07.761Z,9.00
2022-10-19T08:01:41.686Z,8.13
2022-10-19T08:06:55.383Z,8.05
2022-10-19T08:12:13.800Z,8.02
2022-10-19T08:14:41.451Z,8.57
2022-10-19T08:17:12.054Z,8.77
2022-10-19T08:19:43.343Z,8.63
2022-10-19T08:22:10.657Z,8.48
2022-10-19T08:24:37.503Z,8.18
2022-10-19T08:27:04.179Z,8.55
2022-10-19T08:29:31.697Z,8.75
2022-10-19T08:31:59.550Z,7.72
2022-10-19T08:34:26.752Z,7.90
2022-10-19T08:36:53.556Z,7.57
2022-10-19T08:39:20.143Z,8.35
2022-10-19T08:42:04.223Z,8.00
2022-10-19T08:44:48.874Z,6.03
2022-10-19T08:47:26.653Z,6.47
2022-10-19T08:49:54.011Z,4.70
2022-10-19T08:52:34.387Z,4.32
2022-10-19T08:55:15.112Z,4.15
2022-10-19T08:58:06.072Z,3.42
2022-10-19T09:00:42.756Z,3.40
2022-10-19T09:03:43.878Z,3.40
2022-10-19T09:06:29.480Z,4.03
2022-10-19T09:08:57.965Z,2.83
2022-10-19T09:11:32.842Z,3.58
2022-10-19T09:14:15.042Z,3.20
2022-10-19T09:19:23.047Z,2.92
2022-10-19T09:22:01.282Z,2.90
2022-10-19T09:24:51.927Z,3.03
2022-10-19T09:27:29.921Z,2.97
2022-10-19T09:30:04.874Z,3.60
2022-10-19T09:32:38.101Z,2.97
2022-10-19T09:35:16.014Z,2.83
2022-10-19T09:37:47.097Z,2.92
2022-10-19T09:40:25.069Z,2.78
2022-10-19T09:42:57.198Z,3.17
2022-10-19T09:45:36.544Z,3.17
2022-10-19T09:48:13.422Z,3.47
2022-10-19T09:50:43.636Z,2.65
2022-10-19T09:53:19.688Z,2.65
2022-10-19T09:55:51.632Z,3.97
2022-10-19T09:58:20.226Z,3.42
2022-10-19T10:00:54.879Z,3.72
2022-10-19T10:03:35.477Z,3.40
2022-10-19T10:06:06.614Z,3.17
2022-10-19T10:08:45.153Z,2.90
2022-10-19T10:11:13.038Z,2.40
2022-10-19T10:13:42.829Z,2.90
2022-10-19T10:16:14.138Z,2.78
2022-10-19T10:18:49.883Z,2.67
2022-10-19T10:21:34.863Z,2.65
2022-10-19T10:24:06.586Z,3.88
2022-10-19T10:26:42.584Z,2.70
2022-10-19T10:29:28.793Z,2.40
2022-10-19T10:32:00.428Z,2.80
2022-10-19T10:34:51.903Z,2.97
2022-10-19T10:37:24.898Z,2.40
2022-10-19T10:39:59.234Z,3.10
2022-10-19T10:42:35.198Z,2.83
2022-10-19T10:45:02.982Z,2.30
2022-10-19T10:47:30.988Z,2.20
2022-10-19T10:49:59.065Z,2.55
2022-10-19T10:52:29.113Z,2.65
2022-10-19T10:55:01.761Z,2.25
2022-10-19T10:57:53.029Z,1.67
2022-10-19T11:00:22.442Z,2.50
2022-10-19T11:03:12.149Z,2.00
2022-10-19T11:05:46.774Z,2.92
2022-10-19T11:08:20.989Z,2.80
2022-10-19T11:11:00.693Z,2.90
2022-10-19T11:13:39.321Z,3.65
2022-10-19T11:16:24.206Z,3.25
2022-10-19T11:18:57.212Z,2.42
2022-10-19T11:21:48.683Z,2.33
2022-10-19T11:24:21.468Z,2.20
2022-10-19T11:27:04.702Z,2.55
2022-10-19T11:30:04.583Z,2.70
2022-10-19T11:32:46.064Z,2.63
2022-10-19T11:35:15.534Z,2.70
2022-10-19T11:38:18.143Z,3.13
2022-10-19T11:41:17.835Z,2.03
2022-10-19T11:43:54.724Z,2.63
2022-10-19T11:46:35.202Z,2.90
2022-10-19T11:49:25.191Z,2.40
2022-10-19T11:52:05.346Z,2.50
2022-10-19T11:54:59.542Z,2.45
2022-10-19T11:57:31.179Z,3.15
2022-10-19T12:00:37.684Z,2.60
2022-10-19T12:03:25.715Z,2.25
2022-10-19T12:06:22.289Z,2.42
2022-10-19T12:08:55.307Z,2.45
2022-10-19T12:12:04.330Z,2.70
2022-10-19T12:14:34.622Z,2.58
2022-10-19T12:17:08.081Z,2.88
2022-10-19T12:19:44.153Z,2.80
2022-10-19T12:22:24.259Z,2.90
2022-10-19T12:24:53.289Z,2.58
2022-10-19T12:27:30.539Z,2.78
2022-10-19T12:30:03.747Z,3.42
2022-10-19T12:32:37.431Z,3.30
2022-10-19T12:35:27.798Z,3.40
2022-10-19T12:38:05.550Z,3.40
2022-10-19T12:40:32.312Z,3.22
2022-10-19T12:43:18.773Z,3.05
2022-10-19T12:45:54.487Z,3.15
2022-10-19T12:48:24.826Z,3.00
2022-10-19T12:50:53.800Z,2.85
2022-10-19T12:56:12.281Z,3.00
2022-10-19T12:58:46.570Z,2.80
2022-10-19T13:01:22.339Z,2.65
2022-10-19T13:03:54.137Z,2.85
2022-10-19T13:06:23.426Z,2.72
2022-10-19T13:08:53.020Z,2.85
2022-10-19T13:11:21.042Z,3.30
2022-10-19T13:14:01.914Z,2.95
2022-10-19T13:16:28.509Z,3.55
2022-10-19T13:19:13.420Z,3.10
2022-10-19T13:21:52.375Z,2.97
2022-10-19T13:24:25.149Z,3.20
2022-10-19T13:27:04.278Z,2.65
2022-10-19T13:29:44.721Z,2.72
2022-10-19T13:32:39.376Z,3.05
2022-10-19T13:35:25.649Z,3.05
2022-10-19T13:38:12.030Z,3.58
2022-10-19T13:40:59.690Z,2.92
2022-10-19T13:43:30.166Z,3.45
2022-10-19T13:46:29.974Z,3.17
2022-10-19T13:48:56.616Z,3.10
2022-10-19T13:51:57.401Z,3.30
2022-10-19T13:54:42.960Z,3.00
2022-10-19T13:57:34.829Z,2.63
2022-10-19T14:00:13.856Z,2.92
2022-10-19T14:03:11.688Z,2.90
2022-10-19T14:05:57.217Z,3.17
2022-10-19T14:08:47.824Z,2.90
2022-10-19T14:11:21.774Z,3.22
2022-10-19T14:14:10.408Z,3.35
2022-10-19T14:17:04.055Z,3.08
2022-10-19T14:19:42.449Z,2.97
2022-10-19T14:22:26.616Z,4.03
2022-10-19T14:25:01.800Z,3.38
2022-10-19T14:27:30.096Z,3.25
2022-10-19T14:29:57.153Z,3.60
2022-10-19T14:32:27.342Z,4.18
2022-10-19T14:37:31.719Z,4.10
2022-10-19T14:40:26.638Z,4.82
2022-10-19T14:42:56.779Z,3.50
2022-10-19T14:45:29.095Z,4.05
2022-10-19T14:47:57.276Z,3.50
2022-10-19T14:50:29.753Z,3.63
2022-10-19T14:53:30.336Z,4.60
2022-10-19T14:56:02.469Z,4.22
2022-10-19T14:58:36.025Z,3.97
2022-10-19T15:01:02.990Z,4.68
2022-10-19T15:03:30.848Z,4.07
2022-10-19T15:06:06.397Z,3.70
2022-10-19T15:08:43.760Z,4.22
2022-10-19T15:11:33.331Z,3.90
2022-10-19T15:14:06.383Z,3.80
2022-10-19T15:16:39.080Z,4.00
2022-10-19T15:19:14.561Z,4.07
2022-10-19T15:21:41.265Z,4.88
2022-10-19T15:24:22.985Z,3.70
2022-10-19T15:27:06.508Z,5.70
2022-10-19T15:29:35.225Z,4.55
2022-10-19T15:32:16.809Z,4.43
2022-10-19T15:34:45.128Z,4.93
2022-10-19T15:37:20.279Z,4.60
2022-10-19T15:39:47.657Z,4.97
2022-10-19T15:42:29.230Z,5.30
2022-10-19T15:44:55.954Z,6.22
2022-10-19T15:47:24.774Z,5.28
2022-10-19T15:49:55.911Z,4.88
2022-10-19T15:52:29.679Z,4.82
2022-10-19T15:54:59.326Z,4.78
2022-10-19T15:57:34.846Z,5.10
2022-10-19T16:00:22.242Z,4.80
2022-10-19T16:02:48.981Z,5.63
2022-10-19T16:05:15.695Z,6.38
2022-10-19T16:07:42.678Z,5.75
2022-10-19T16:10:16.807Z,6.60
2022-10-19T16:12:43.543Z,6.40
2022-10-19T16:15:22.327Z,7.18
2022-10-19T16:17:52.449Z,7.13
2022-10-19T16:20:19.433Z,6.38
2022-10-19T16:22:47.689Z,5.60
2022-10-19T16:25:15.166Z,6.05
2022-10-19T16:27:42.182Z,6.43
2022-10-19T16:30:09.482Z,5.22
2022-10-19T16:32:36.328Z,5.60
2022-10-19T16:35:03.241Z,5.78
2022-10-19T16:37:30.042Z,5.82
2022-10-19T16:39:56.663Z,5.18
2022-10-19T16:42:25.634Z,5.30
2022-10-19T16:44:55.579Z,6.10
2022-10-19T16:47:22.365Z,5.80
2022-10-19T16:49:56.964Z,5.38
2022-10-19T16:52:23.661Z,5.90
2022-10-19T16:54:50.519Z,5.72
2022-10-19T16:57:17.145Z,6.30
2022-10-19T16:59:43.885Z,6.82
2022-10-19T17:02:11.588Z,6.35
2022-10-19T17:04:39.065Z,6.00
2022-10-19T17:07:05.948Z,6.63
2022-10-19T17:09:52.260Z,5.68
2022-10-19T17:12:19.449Z,6.10
2022-10-19T17:14:46.147Z,6.75
2022-10-19T17:17:13.165Z,6.80
2022-10-19T17:19:39.955Z,6.38
2022-10-19T17:22:09.519Z,7.18
2022-10-19T17:24:37.463Z,7.78
2022-10-19T17:27:04.178Z,7.38
2022-10-19T17:29:30.937Z,7.43
2022-10-19T17:31:58.290Z,6.72
2022-10-19T17:34:25.283Z,6.70
2022-10-19T17:36:51.933Z,7.32
2022-10-19T17:39:25.553Z,7.35
2022-10-19T17:42:01.648Z,6.57
2022-10-19T17:46:56.806Z,6.35
2022-10-19T17:49:23.410Z,5.68
2022-10-19T17:51:52.769Z,6.65
2022-10-19T17:54:19.487Z,6.50
2022-10-19T17:56:46.172Z,6.25
2022-10-19T17:59:13.608Z,6.57
2022-10-19T18:01:40.673Z,6.75
2022-10-19T18:04:07.351Z,6.95
2022-10-19T18:06:36.609Z,6.90
2022-10-19T18:09:06.144Z,7.07
2022-10-19T18:11:38.670Z,7.72
2022-10-19T18:14:08.292Z,6.93
2022-10-19T18:16:46.996Z,6.95
2022-10-19T18:19:16.287Z,7.18
2022-10-19T18:21:45.907Z,6.50
2022-10-19T18:24:21.975Z,7.03
2022-10-19T18:26:50.346Z,7.18
2022-10-19T18:29:21.068Z,7.20
2022-10-19T18:31:55.205Z,7.93
2022-10-19T18:34:24.612Z,6.22
2022-10-19T18:36:52.032Z,6.90
2022-10-19T18:39:19.198Z,6.32
2022-10-19T18:41:46.192Z,7.07
2022-10-19T18:44:13.750Z,7.22
2022-10-19T18:46:41.294Z,6.90
2022-10-19T18:49:08.417Z,7.70
2022-10-19T18:51:35.737Z,7.47
2022-10-19T18:54:02.709Z,7.53
2022-10-19T18:56:29.913Z,7.20
2022-10-19T18:58:57.155Z,7.07
2022-10-19T19:01:26.969Z,7.22
2022-10-19T19:03:56.899Z,6.90
2022-10-19T19:06:29.564Z,7.93
2022-10-19T19:09:01.335Z,8.18
2022-10-19T19:11:36.776Z,8.27
2022-10-19T19:14:15.842Z,7.82
2022-10-19T19:16:44.037Z,7.60
2022-10-19T19:19:13.261Z,7.70
2022-10-19T19:21:44.104Z,7.82
2022-10-19T19:24:14.583Z,7.43
2022-10-19T19:26:43.445Z,7.15
2022-10-19T19:29:10.512Z,8.07
2022-10-19T19:31:37.493Z,7.68
2022-10-19T19:34:06.333Z,8.50
2022-10-19T19:36:33.911Z,7.95
2022-10-19T19:39:01.412Z,8.32
2022-10-19T19:41:32.554Z,7.82
2022-10-19T19:43:59.702Z,7.18
2022-10-19T19:46:27.301Z,8.02
2022-10-19T19:49:02.881Z,7.95
2022-10-19T19:51:31.659Z,8.68
2022-10-19T19:53:59.024Z,8.00
2022-10-19T19:56:26.170Z,7.93
2022-10-19T19:58:58.460Z,9.63
2022-10-19T20:01:26.817Z,9.05
2022-10-19T20:03:53.800Z,7.97
2022-10-19T20:06:24.972Z,9.48
2022-10-19T20:11:19.533Z,9.10
2022-10-19T20:13:46.446Z,8.90
2022-10-19T20:16:15.807Z,9.43
2022-10-19T20:18:45.658Z,8.55
2022-10-19T20:21:12.958Z,9.45
2022-10-19T20:23:39.898Z,9.80
2022-10-19T20:26:06.715Z,8.95
2022-10-19T20:28:33.502Z,9.55
2022-10-19T20:31:05.295Z,15.35
2022-10-19T20:33:34.163Z,9.95
2022-10-19T20:36:10.895Z,10.82
2022-10-19T20:38:38.678Z,9.82
2022-10-19T20:41:09.790Z,9.85
2022-10-19T20:43:37.514Z,10.32
2022-10-19T20:46:17.782Z,9.73
2022-10-19T20:48:45.367Z,9.85
2022-10-19T20:51:32.118Z,10.48
2022-10-19T20:54:01.687Z,10.50
2022-10-19T20:56:31.791Z,10.15
2022-10-19T21:01:30.176Z,10.30
2022-10-19T21:03:59.012Z,10.60
2022-10-19T21:06:27.014Z,10.57
2022-10-19T21:08:54.551Z,11.35
2022-10-19T21:11:24.597Z,10.38
2022-10-19T21:13:56.368Z,11.25
2022-10-19T21:16:27.527Z,10.75
2022-10-19T21:18:54.831Z,10.68
2022-10-19T21:21:24.935Z,11.32
2022-10-19T21:23:55.427Z,10.93
2022-10-19T21:26:25.250Z,11.93
2022-10-19T21:28:55.139Z,11.10
2022-10-19T21:31:23.652Z,11.07
2022-10-19T21:33:51.775Z,11.43
2022-10-19T21:36:20.137Z,11.15
2022-10-19T21:38:47.626Z,10.55
2022-10-19T21:41:16.473Z,11.57
2022-10-19T21:43:43.636Z,10.98
2022-10-19T21:46:16.113Z,11.80
2022-10-19T21:48:43.758Z,11.35
2022-10-19T21:51:36.303Z,11.07
2022-10-19T21:54:08.075Z,11.90
2022-10-19T21:56:34.857Z,12.38
2022-10-19T21:59:01.469Z,12.48
2022-10-19T22:01:29.942Z,12.75
2022-10-19T22:04:01.741Z,11.73
2022-10-19T22:06:30.571Z,12.32
2022-10-19T22:08:58.178Z,13.15
2022-10-19T22:11:25.439Z,12.57
2022-10-19T22:13:57.019Z,13.25
2022-10-19T22:16:24.778Z,13.10
2022-10-19T22:18:52.588Z,12.88
2022-10-19T22:21:26.100Z,13.73
2022-10-19T22:24:00.988Z,13.07
2022-10-19T22:26:33.645Z,14.15
2022-10-19T22:29:01.421Z,14.45
2022-10-19T22:31:29.690Z,15.15
2022-10-19T22:33:56.362Z,15.52
2022-10-19T22:36:22.966Z,15.18
2022-10-19T22:38:49.564Z,16.45
2022-10-19T22:41:16.931Z,15.20
2022-10-19T22:43:43.510Z,16.23
2022-10-19T22:46:10.225Z,16.67
2022-10-19T22:48:37.096Z,16.65
2022-10-19T22:51:03.984Z,16.08
2022-10-19T22:53:30.776Z,15.57
2022-10-19T22:55:57.586Z,16.45
2022-10-19T22:58:24.186Z,16.48
2022-10-19T23:01:26.695Z,16.88
2022-10-19T23:03:54.538Z,17.15
2022-10-19T23:06:21.995Z,17.75
2022-10-19T23:08:49.373Z,17.38
2022-10-19T23:11:16.806Z,16.70
2022-10-19T23:13:43.903Z,17.52
2022-10-19T23:16:10.681Z,18.05
2022-10-19T23:18:39.679Z,17.42
2022-10-19T23:21:10.699Z,17.67
2022-10-19T23:23:37.422Z,17.85
2022-10-19T23:26:05.642Z,16.73
2022-10-19T23:28:34.389Z,17.70
2022-10-19T23:31:30.275Z,17.08
2022-10-19T23:33:56.970Z,18.52
2022-10-19T23:36:27.045Z,18.02
2022-10-19T23:38:54.936Z,18.10
2022-10-19T23:41:22.817Z,18.80
2022-10-19T23:43:49.667Z,18.00
2022-10-19T23:46:16.730Z,18.60
2022-10-19T23:48:43.344Z,19.10
2022-10-19T23:51:12.888Z,20.95
2022-10-19T23:53:41.719Z,21.15
2022-10-19T23:56:27.854Z,21.75
2022-10-19T23:58:55.087Z,21.88
